createdAt,value
2022-08-09T00:00:46.067Z,96.48
2022-08-09T00:01:48.336Z,96.38
2022-08-09T00:02:49.539Z,96.08
2022-08-09T00:04:10.140Z,95.98
2022-08-09T00:04:42.270Z,95.87
2022-08-09T00:06:17.602Z,95.78
2022-08-09T00:06:44.313Z,95.63
2022-08-09T00:07:44.540Z,95.47
2022-08-09T00:08:41.224Z,95.42
2022-08-09T00:09:41.232Z,95.63
2022-08-09T00:10:41.212Z,95.83
2022-08-09T00:12:02.634Z,95.73
2022-08-09T00:12:42.176Z,95.73
2022-08-09T00:13:41.154Z,95.83
2022-08-09T00:14:41.133Z,95.83
2022-08-09T00:15:59.339Z,95.87
2022-08-09T00:16:42.105Z,96.18
2022-08-09T00:18:07.739Z,96.18
2022-08-09T00:18:42.099Z,96.53
2022-08-09T00:19:41.065Z,96.63
2022-08-09T00:20:49.882Z,96.83
2022-08-09T00:21:55.514Z,97.49
2022-08-09T00:22:42.025Z,97.69
2022-08-09T00:23:58.182Z,97.89
2022-08-09T00:24:42.010Z,97.80
2022-08-09T00:25:40.988Z,97.60
2022-08-09T00:26:40.967Z,97.39
2022-08-09T00:27:43.321Z,97.08
2022-08-09T00:28:42.053Z,96.88
2022-08-09T00:30:24.689Z,96.58
2022-08-09T00:30:41.923Z,96.27
2022-08-09T00:31:59.846Z,96.27
2022-08-09T00:32:42.237Z,96.27
2022-08-09T00:33:51.084Z,96.23
2022-08-09T00:34:46.415Z,96.53
2022-08-09T00:35:42.831Z,96.94
2022-08-09T00:36:41.757Z,97.44
2022-08-09T00:37:40.836Z,97.34
2022-08-09T00:38:40.815Z,97.69
2022-08-09T00:40:09.819Z,97.89
2022-08-09T00:40:53.156Z,97.49
2022-08-09T00:44:10.023Z,98.71
2022-08-09T00:44:11.081Z,97.89
2022-08-09T00:44:15.995Z,98.30
2022-08-09T00:44:41.742Z,98.50
2022-08-09T00:45:50.544Z,98.45
2022-08-09T00:46:57.292Z,98.41
2022-08-09T00:47:41.698Z,98.50
2022-08-09T00:48:40.665Z,98.30
2022-08-09T00:49:41.677Z,98.20
2022-08-09T00:50:40.652Z,98.10
2022-08-09T00:51:42.637Z,97.80
2022-08-09T00:52:41.630Z,97.80
2022-08-09T00:53:40.606Z,97.69
2022-08-09T00:54:40.704Z,97.49
2022-08-09T00:56:04.622Z,97.39
2022-08-09T00:56:41.559Z,97.19
2022-08-09T00:57:40.562Z,97.19
2022-08-09T00:58:40.542Z,97.08
2022-08-09T00:59:46.313Z,96.98
2022-08-09T01:00:41.522Z,96.78
2022-08-09T01:01:45.207Z,96.88
2022-08-09T01:02:41.480Z,96.83
2022-08-09T01:03:45.502Z,96.68
2022-08-09T01:04:41.461Z,96.37
2022-08-09T01:05:51.604Z,96.37
2022-08-09T01:06:54.495Z,96.78
2022-08-09T01:08:00.877Z,96.98
2022-08-09T01:08:49.653Z,96.88
2022-08-09T01:09:41.383Z,96.68
2022-08-09T01:10:40.472Z,96.88
2022-08-09T01:11:40.374Z,97.29
2022-08-09T01:12:41.355Z,98.10
2022-08-09T01:13:53.316Z,98.71
2022-08-09T01:14:41.313Z,99.02
2022-08-09T01:15:40.902Z,99.02
2022-08-09T01:16:47.399Z,99.11
2022-08-09T01:17:41.289Z,99.37
2022-08-09T01:18:40.268Z,99.47
2022-08-09T01:19:51.729Z,99.47
2022-08-09T01:20:41.249Z,99.47
2022-08-09T01:21:41.293Z,99.47
2022-08-09T01:22:40.237Z,99.47
2022-08-09T01:24:01.929Z,99.27
2022-08-09T01:24:41.177Z,99.16
2022-08-09T01:25:41.660Z,99.37
2022-08-09T01:26:40.163Z,99.47
2022-08-09T01:27:40.137Z,99.57
2022-08-09T01:28:40.127Z,99.47
2022-08-09T01:29:52.805Z,99.47
2022-08-09T01:30:52.466Z,99.47
2022-08-09T01:32:31.246Z,99.47
2022-08-09T01:32:45.397Z,99.27
2022-08-09T01:33:41.066Z,99.31
2022-08-09T01:34:40.040Z,99.41
2022-08-09T01:35:42.290Z,99.31
2022-08-09T01:36:40.022Z,99.21
2022-08-09T01:38:05.908Z,99.21
2022-08-09T01:38:41.007Z,99.11
2022-08-09T01:39:41.019Z,99.11
2022-08-09T01:40:39.977Z,99.11
2022-08-09T01:41:53.540Z,99.11
2022-08-09T01:42:40.932Z,99.11
2022-08-09T01:43:41.950Z,99.01
2022-08-09T01:44:40.925Z,99.11
2022-08-09T01:45:45.951Z,99.01
2022-08-09T01:46:40.888Z,99.11
2022-08-09T01:47:44.705Z,99.21
2022-08-09T01:48:40.894Z,99.11
2022-08-09T01:49:40.006Z,99.11
2022-08-09T01:50:41.925Z,99.41
2022-08-09T01:51:42.719Z,99.41
2022-08-09T01:52:41.393Z,99.36
2022-08-09T01:53:39.795Z,99.66
2022-08-09T01:54:39.805Z,99.77
2022-08-09T01:55:39.780Z,99.97
2022-08-09T01:56:39.746Z,99.99
2022-08-09T01:57:40.048Z,99.99
2022-08-09T01:58:39.740Z,99.99
2022-08-09T01:59:40.896Z,99.99
2022-08-09T02:00:40.711Z,99.99
2022-08-09T02:01:59.961Z,99.99
2022-08-09T02:02:40.668Z,99.99
2022-08-09T02:03:39.672Z,99.99
2022-08-09T02:04:45.371Z,99.99
2022-08-09T02:06:04.038Z,99.99
2022-08-09T02:06:54.208Z,99.99
2022-08-09T02:08:40.945Z,99.99
2022-08-09T02:08:58.979Z,99.99
2022-08-09T02:09:42.070Z,99.99
2022-08-09T02:10:39.571Z,99.99
2022-08-09T02:11:42.071Z,99.66
2022-08-09T02:12:39.531Z,99.26
2022-08-09T02:13:40.615Z,98.95
2022-08-09T02:14:39.516Z,98.75
2022-08-09T02:15:49.574Z,98.44
2022-08-09T02:16:53.267Z,98.14
2022-08-09T02:18:01.066Z,98.08
2022-08-09T02:18:42.830Z,97.98
2022-08-09T02:19:43.022Z,97.67
2022-08-09T02:20:39.445Z,97.27
2022-08-09T02:21:39.415Z,97.16
2022-08-09T02:22:39.733Z,97.12
2022-08-09T02:23:39.862Z,97.12
2022-08-09T02:24:39.375Z,96.92
2022-08-09T02:25:42.641Z,96.66
2022-08-09T02:26:40.369Z,96.92
2022-08-09T02:27:57.305Z,97.93
2022-08-09T02:28:40.334Z,98.03
2022-08-09T02:29:39.326Z,97.67
2022-08-09T02:30:39.289Z,97.98
2022-08-09T02:31:39.301Z,98.90
2022-08-09T02:32:39.283Z,99.20
2022-08-09T02:34:06.650Z,99.81
2022-08-09T02:34:51.830Z,99.99
2022-08-09T02:36:03.315Z,99.99
2022-08-09T02:36:42.014Z,99.99
2022-08-09T02:37:39.220Z,99.99
2022-08-09T02:38:40.193Z,99.99
2022-08-09T02:39:41.950Z,99.99
2022-08-09T02:40:39.197Z,99.99
2022-08-09T02:41:39.150Z,99.99
2022-08-09T02:42:39.132Z,99.86
2022-08-09T02:43:53.521Z,99.66
2022-08-09T02:44:40.101Z,99.55
2022-08-09T02:45:39.113Z,99.66
2022-08-09T02:46:39.088Z,99.66
2022-08-09T02:47:58.036Z,99.55
2022-08-09T02:48:40.071Z,99.35
2022-08-09T02:49:41.549Z,99.15
2022-08-09T02:50:39.047Z,98.99
2022-08-09T02:51:40.417Z,98.99
2022-08-09T02:52:39.006Z,98.99
2022-08-09T02:53:38.984Z,99.09
2022-08-09T02:54:54.480Z,99.19
2022-08-09T02:55:57.730Z,99.29
2022-08-09T02:56:39.944Z,99.80
2022-08-09T02:57:40.498Z,99.99
2022-08-09T02:58:39.927Z,99.99
2022-08-09T02:59:38.906Z,99.99
2022-08-09T03:00:57.963Z,99.99
2022-08-09T03:01:58.667Z,99.99
2022-08-09T03:02:39.917Z,99.99
2022-08-09T03:04:18.165Z,99.99
2022-08-09T03:04:39.850Z,99.99
2022-08-09T03:05:38.817Z,99.99
2022-08-09T03:06:38.808Z,99.99
2022-08-09T03:07:38.802Z,99.99
2022-08-09T03:08:38.787Z,99.99
2022-08-09T03:09:42.772Z,99.99
2022-08-09T03:10:38.772Z,99.99
2022-08-09T03:12:06.473Z,99.99
2022-08-09T03:12:39.743Z,99.99
2022-08-09T03:13:43.471Z,99.85
2022-08-09T03:14:39.699Z,99.65
2022-08-09T03:15:40.513Z,99.44
2022-08-09T03:16:44.848Z,98.93
2022-08-09T03:17:39.665Z,98.52
2022-08-09T03:18:38.663Z,98.63
2022-08-09T03:19:58.168Z,98.52
2022-08-09T03:20:39.623Z,98.52
2022-08-09T03:21:39.784Z,98.32
2022-08-09T03:22:41.746Z,98.22
2022-08-09T03:23:39.573Z,98.32
2022-08-09T03:24:51.689Z,98.63
2022-08-09T03:25:59.427Z,98.93
2022-08-09T03:26:45.005Z,98.98
2022-08-09T03:27:45.115Z,98.68
2022-08-09T03:28:39.521Z,98.57
2022-08-09T03:29:56.897Z,99.08
2022-08-09T03:30:39.510Z,99.99
2022-08-09T03:31:42.450Z,99.99
2022-08-09T03:32:38.477Z,99.99
2022-08-09T03:33:54.370Z,99.99
2022-08-09T03:34:39.436Z,99.99
2022-08-09T03:36:13.844Z,99.99
2022-08-09T03:36:39.420Z,99.99
2022-08-09T03:37:55.289Z,99.99
2022-08-09T03:38:42.624Z,99.99
2022-08-09T03:39:38.442Z,99.99
2022-08-09T03:40:39.349Z,99.99
2022-08-09T03:41:45.715Z,99.99
2022-08-09T03:42:39.342Z,99.99
2022-08-09T03:43:38.307Z,99.99
2022-08-09T03:44:38.313Z,99.99
2022-08-09T03:46:04.592Z,99.99
2022-08-09T03:46:39.517Z,99.99
2022-08-09T03:47:41.839Z,99.99
2022-08-09T03:48:42.870Z,99.99
2022-08-09T03:49:39.238Z,99.99
2022-08-09T03:50:39.233Z,99.99
2022-08-09T03:51:57.122Z,99.99
2022-08-09T03:52:39.192Z,99.99
2022-08-09T03:53:38.185Z,99.99
2022-08-09T03:54:38.414Z,99.99
2022-08-09T03:55:40.692Z,99.99
2022-08-09T03:56:38.153Z,99.99
2022-08-09T03:57:53.515Z,99.99
2022-08-09T03:58:39.103Z,99.99
2022-08-09T03:59:53.005Z,99.99
2022-08-09T04:00:39.152Z,99.99
2022-08-09T04:01:38.068Z,99.99
2022-08-09T04:02:38.069Z,99.99
2022-08-09T04:03:46.189Z,99.99
2022-08-09T04:04:39.123Z,99.99
2022-08-09T04:05:40.503Z,99.99
2022-08-09T04:06:37.997Z,99.99
2022-08-09T04:07:53.186Z,99.99
2022-08-09T04:08:38.968Z,99.99
2022-08-09T04:09:48.276Z,99.99
2022-08-09T04:10:38.952Z,99.99
2022-08-09T04:11:37.928Z,99.99
2022-08-09T04:12:37.933Z,99.99
2022-08-09T04:14:37.214Z,99.99
2022-08-09T04:15:01.028Z,99.99
2022-08-09T04:16:18.667Z,99.99
2022-08-09T04:16:38.858Z,99.99
2022-08-09T04:17:37.862Z,99.99
2022-08-09T04:18:37.843Z,99.99
2022-08-09T04:19:42.857Z,99.99
2022-08-09T04:20:38.824Z,99.99
2022-08-09T04:21:40.159Z,99.99
2022-08-09T04:22:41.224Z,99.99
2022-08-09T04:23:38.775Z,99.99
2022-08-09T04:24:37.764Z,99.99
2022-08-09T04:25:37.731Z,99.99
2022-08-09T04:26:38.269Z,99.99
2022-08-09T04:27:37.972Z,99.99
2022-08-09T04:28:42.549Z,99.99
2022-08-09T04:29:38.694Z,99.99
2022-08-09T04:30:37.684Z,99.99
2022-08-09T04:31:47.295Z,99.99
2022-08-09T04:32:38.923Z,99.99
2022-08-09T04:33:47.349Z,99.99
2022-08-09T04:34:38.615Z,99.99
2022-08-09T04:35:38.610Z,99.99
2022-08-09T04:36:38.868Z,99.99
2022-08-09T04:37:46.055Z,99.99
2022-08-09T04:38:38.579Z,99.99
2022-08-09T04:39:40.517Z,99.99
2022-08-09T04:40:37.526Z,99.99
2022-08-09T04:41:43.698Z,99.99
2022-08-09T04:42:38.531Z,99.99
2022-08-09T04:43:37.486Z,99.99
2022-08-09T04:44:38.492Z,99.99
2022-08-09T04:45:53.182Z,99.99
2022-08-09T04:46:59.517Z,99.99
2022-08-09T04:47:58.720Z,99.99
2022-08-09T04:48:38.530Z,99.99
2022-08-09T04:49:52.495Z,99.99
2022-08-09T04:50:38.430Z,99.99
2022-08-09T04:51:37.369Z,99.99
2022-08-09T04:52:37.745Z,99.99
2022-08-09T04:53:37.350Z,99.99
2022-08-09T04:54:37.378Z,99.99
2022-08-09T04:55:41.020Z,99.99
2022-08-09T04:56:38.326Z,99.99
2022-08-09T04:57:59.449Z,99.99
2022-08-09T04:58:38.282Z,99.99
2022-08-09T04:59:37.277Z,99.95
2022-08-09T05:00:37.282Z,99.99
2022-08-09T05:01:37.254Z,99.95
2022-08-09T05:02:37.245Z,99.85
2022-08-09T05:03:43.146Z,99.75
2022-08-09T05:04:38.242Z,99.75
2022-08-09T05:05:52.759Z,99.65
2022-08-09T05:06:38.175Z,99.54
2022-08-09T05:07:37.168Z,99.34
2022-08-09T05:08:37.153Z,99.09
2022-08-09T05:09:45.514Z,99.50
2022-08-09T05:10:38.146Z,99.91
2022-08-09T05:11:37.125Z,99.99
2022-08-09T05:12:37.349Z,99.99
2022-08-09T05:13:38.682Z,99.99
2022-08-09T05:14:37.067Z,99.99
2022-08-09T05:15:39.370Z,99.99
2022-08-09T05:16:58.324Z,99.99
2022-08-09T05:18:50.351Z,99.99
2022-08-09T05:18:58.256Z,99.99
2022-08-09T05:19:46.002Z,99.99
2022-08-09T05:20:38.002Z,99.99
2022-08-09T05:21:46.827Z,99.99
2022-08-09T05:23:55.467Z,99.99
2022-08-09T05:23:55.528Z,99.99
2022-08-09T05:24:37.930Z,99.99
2022-08-09T05:25:36.938Z,99.99
2022-08-09T05:26:46.246Z,99.99
2022-08-09T05:27:45.542Z,99.99
2022-08-09T05:28:37.984Z,99.99
2022-08-09T05:29:36.867Z,99.99
2022-08-09T05:30:36.863Z,99.99
2022-08-09T05:31:46.762Z,99.99
2022-08-09T05:32:37.838Z,99.99
2022-08-09T05:33:36.801Z,99.99
2022-08-09T05:34:37.792Z,99.99
2022-08-09T05:35:38.926Z,99.99
2022-08-09T05:36:37.763Z,99.99
2022-08-09T05:37:38.247Z,99.99
2022-08-09T05:38:39.065Z,99.99
2022-08-09T05:39:42.463Z,99.99
2022-08-09T05:40:37.728Z,99.99
2022-08-09T05:41:36.694Z,99.93
2022-08-09T05:42:36.909Z,99.68
2022-08-09T05:43:36.680Z,99.58
2022-08-09T05:44:36.678Z,99.48
2022-08-09T05:45:52.676Z,99.48
2022-08-09T05:46:37.626Z,99.27
2022-08-09T05:47:36.627Z,99.07
2022-08-09T05:48:37.606Z,98.41
2022-08-09T05:50:34.947Z,98.11
2022-08-09T05:50:51.263Z,97.71
2022-08-09T05:51:45.955Z,97.71
2022-08-09T05:52:38.476Z,97.56
2022-08-09T05:53:57.054Z,97.45
2022-08-09T05:54:37.548Z,97.25
2022-08-09T05:55:36.533Z,97.05
2022-08-09T05:56:36.497Z,96.70
2022-08-09T05:57:51.178Z,96.50
2022-08-09T05:58:37.483Z,96.39
2022-08-09T05:59:36.451Z,96.09
2022-08-09T06:00:36.448Z,95.79
2022-08-09T06:01:42.883Z,95.64
2022-08-09T06:02:37.471Z,95.74
2022-08-09T06:03:44.077Z,95.64
2022-08-09T06:04:37.405Z,95.50
2022-08-09T06:05:56.858Z,95.59
2022-08-09T06:06:37.363Z,95.29
2022-08-09T06:07:36.356Z,94.48
2022-08-09T06:08:36.332Z,94.18
2022-08-09T06:09:54.840Z,94.27
2022-08-09T06:10:37.327Z,94.13
2022-08-09T06:11:40.954Z,94.13
2022-08-09T06:12:37.600Z,94.64
2022-08-09T06:13:36.264Z,94.19
2022-08-09T06:14:36.261Z,93.18
2022-08-09T06:15:36.253Z,93.27
2022-08-09T06:16:36.226Z,92.47
2022-08-09T06:17:39.051Z,92.16
2022-08-09T06:18:36.486Z,92.36
2022-08-09T06:19:36.176Z,92.32
2022-08-09T06:20:36.300Z,92.32
2022-08-09T06:21:36.157Z,91.82
2022-08-09T06:22:37.345Z,91.71
2022-08-09T06:23:57.460Z,91.92
2022-08-09T06:24:37.119Z,92.28
2022-08-09T06:25:36.112Z,92.13
2022-08-09T06:26:36.222Z,91.53
2022-08-09T06:27:42.580Z,90.67
2022-08-09T06:28:37.081Z,90.88
2022-08-09T06:29:58.580Z,90.43
2022-08-09T06:30:37.037Z,89.52
2022-08-09T06:31:40.329Z,89.88
2022-08-09T06:33:00.779Z,89.28
2022-08-09T06:33:41.012Z,88.97
2022-08-09T06:34:35.990Z,87.52
2022-08-09T06:35:57.048Z,87.32
2022-08-09T06:36:36.955Z,85.90
2022-08-09T06:37:52.859Z,86.10
2022-08-09T06:38:37.742Z,87.12
2022-08-09T06:39:39.694Z,87.41
2022-08-09T06:40:36.945Z,87.12
2022-08-09T06:42:00.467Z,86.77
2022-08-09T06:42:44.706Z,86.36
2022-08-09T06:43:36.868Z,86.02
2022-08-09T06:44:35.865Z,84.81
2022-08-09T06:46:07.843Z,84.88
2022-08-09T06:46:39.602Z,84.88
2022-08-09T06:47:40.033Z,84.74
2022-08-09T06:48:36.794Z,84.33
2022-08-09T06:50:11.343Z,83.42
2022-08-09T06:50:36.778Z,83.42
2022-08-09T06:51:39.149Z,83.93
2022-08-09T06:52:35.750Z,83.42
2022-08-09T06:53:38.525Z,83.22
2022-08-09T06:54:35.709Z,84.13
2022-08-09T06:55:35.703Z,83.69
2022-08-09T06:56:35.680Z,82.48
2022-08-09T06:58:01.626Z,82.24
2022-08-09T07:00:48.598Z,81.84
2022-08-09T07:00:51.955Z,80.93
2022-08-09T07:00:56.359Z,80.99
2022-08-09T07:01:57.782Z,80.65
2022-08-09T07:02:36.828Z,79.74
2022-08-09T07:03:39.279Z,79.21
2022-08-09T07:04:36.706Z,78.60
2022-08-09T07:06:02.269Z,77.76
2022-08-09T07:06:36.543Z,77.66
2022-08-09T07:07:58.629Z,78.27
2022-08-09T07:08:37.289Z,77.02
2022-08-09T07:09:55.865Z,75.92
2022-08-09T07:10:36.618Z,76.42
2022-08-09T07:11:52.240Z,76.92
2022-08-09T07:12:38.740Z,76.58
2022-08-09T07:13:45.562Z,75.58
2022-08-09T07:14:36.436Z,75.45
2022-08-09T07:16:39.377Z,73.33
2022-08-09T07:16:42.046Z,73.60
2022-08-09T07:17:39.665Z,72.70
2022-08-09T07:18:35.399Z,73.00
2022-08-09T07:19:35.372Z,73.07
2022-08-09T07:20:35.349Z,71.90
2022-08-09T07:21:35.363Z,71.96
2022-08-09T07:22:36.323Z,71.83
2022-08-09T07:23:36.457Z,70.83
2022-08-09T07:24:40.503Z,71.33
2022-08-09T07:25:38.819Z,70.79
2022-08-09T07:26:36.402Z,70.09
2022-08-09T07:27:42.683Z,69.46
2022-08-09T07:28:36.241Z,69.46
2022-08-09T07:29:38.069Z,68.93
2022-08-09T07:30:36.226Z,68.62
2022-08-09T07:31:38.112Z,69.46
2022-08-09T07:32:35.305Z,70.46
2022-08-09T07:33:53.057Z,69.56
2022-08-09T07:34:36.163Z,68.93
2022-08-09T07:35:53.437Z,68.79
2022-08-09T07:36:36.149Z,66.49
2022-08-09T07:37:42.972Z,66.93
2022-08-09T07:38:36.106Z,67.63
2022-08-09T07:39:40.812Z,67.13
2022-08-09T07:40:54.061Z,67.52
2022-08-09T07:41:38.782Z,67.89
2022-08-09T07:42:35.193Z,66.16
2022-08-09T07:43:50.117Z,66.23
2022-08-09T07:44:51.798Z,65.13
2022-08-09T07:45:39.532Z,64.30
2022-08-09T07:46:35.007Z,64.07
2022-08-09T07:47:49.388Z,64.34
2022-08-09T07:48:36.088Z,63.64
2022-08-09T07:49:34.981Z,62.77
2022-08-09T07:50:36.857Z,63.67
2022-08-09T07:52:05.315Z,64.07
2022-08-09T07:52:36.057Z,62.74
2022-08-09T07:53:36.480Z,61.35
2022-08-09T07:54:35.913Z,62.21
2022-08-09T07:55:41.432Z,60.72
2022-08-09T07:56:49.766Z,61.88
2022-08-09T07:57:36.378Z,60.59
2022-08-09T07:58:34.832Z,60.32
2022-08-09T07:59:51.004Z,60.99
2022-08-09T08:00:36.789Z,59.27
2022-08-09T08:01:35.846Z,58.76
2022-08-09T08:02:35.198Z,58.94
2022-08-09T08:03:37.006Z,58.74
2022-08-09T08:04:34.798Z,58.74
2022-08-09T08:05:39.081Z,59.04
2022-08-09T08:06:35.726Z,59.04
2022-08-09T08:08:43.437Z,58.94
2022-08-09T08:09:01.672Z,59.34
2022-08-09T08:09:45.189Z,58.74
2022-08-09T08:10:35.677Z,58.71
2022-08-09T08:12:24.002Z,58.71
2022-08-09T08:12:35.761Z,58.71
2022-08-09T08:13:38.221Z,58.28
2022-08-09T08:14:35.635Z,58.28
2022-08-09T08:15:35.343Z,57.06
2022-08-09T08:16:34.779Z,57.06
2022-08-09T08:17:54.133Z,56.96
2022-08-09T08:18:35.567Z,56.64
2022-08-09T08:19:34.580Z,55.91
2022-08-09T08:20:34.622Z,55.32
2022-08-09T08:21:34.557Z,55.42
2022-08-09T08:22:35.526Z,55.42
2022-08-09T08:23:34.981Z,55.72
2022-08-09T08:24:39.900Z,55.32
2022-08-09T08:25:43.866Z,55.55
2022-08-09T08:26:41.968Z,55.91
2022-08-09T08:27:40.737Z,55.66
2022-08-09T08:28:35.458Z,54.64
2022-08-09T08:29:39.507Z,53.96
2022-08-09T08:30:35.420Z,54.42
2022-08-09T08:31:39.615Z,53.53
2022-08-09T08:32:35.617Z,52.73
2022-08-09T08:33:52.131Z,52.94
2022-08-09T08:34:36.626Z,52.51
2022-08-09T08:35:37.099Z,52.22
2022-08-09T08:36:35.351Z,53.36
2022-08-09T08:37:41.898Z,54.25
2022-08-09T08:38:35.313Z,53.63
2022-08-09T08:39:39.776Z,53.01
2022-08-09T08:40:35.270Z,51.79
2022-08-09T08:41:50.457Z,51.99
2022-08-09T08:42:35.576Z,52.02
2022-08-09T08:43:34.231Z,52.19
2022-08-09T08:44:34.233Z,51.77
2022-08-09T08:45:37.327Z,50.29
2022-08-09T08:46:59.850Z,50.09
2022-08-09T08:47:38.571Z,51.20
2022-08-09T08:48:35.273Z,51.30
2022-08-09T08:49:46.291Z,52.19
2022-08-09T08:50:35.159Z,51.57
2022-08-09T08:51:41.693Z,51.32
2022-08-09T08:53:37.319Z,50.98
2022-08-09T08:54:34.095Z,51.18
2022-08-09T08:55:34.091Z,50.81
2022-08-09T08:56:34.070Z,51.42
2022-08-09T08:57:35.511Z,51.03
2022-08-09T08:58:36.041Z,51.03
2022-08-09T08:59:46.529Z,52.12
2022-08-09T09:00:35.118Z,51.40
2022-08-09T09:01:44.679Z,51.12
2022-08-09T09:02:35.485Z,51.99
2022-08-09T09:03:37.477Z,51.05
2022-08-09T09:04:41.563Z,49.91
2022-08-09T09:06:00.732Z,48.19
2022-08-09T09:06:34.922Z,48.56
2022-08-09T09:07:36.749Z,47.92
2022-08-09T09:08:41.070Z,46.94
2022-08-09T09:09:58.600Z,47.23
2022-08-09T09:10:34.884Z,47.13
2022-08-09T09:11:33.960Z,45.26
2022-08-09T09:12:34.341Z,46.37
2022-08-09T09:13:41.931Z,46.22
2022-08-09T09:14:34.829Z,48.31
2022-08-09T09:15:33.805Z,47.30
2022-08-09T09:16:35.152Z,48.63
2022-08-09T09:17:49.256Z,48.14
2022-08-09T09:18:34.756Z,47.94
2022-08-09T09:19:42.007Z,49.25
2022-08-09T09:20:34.738Z,48.24
2022-08-09T09:21:43.034Z,48.26
2022-08-09T09:22:35.076Z,49.05
2022-08-09T09:23:37.551Z,48.65
2022-08-09T09:24:33.695Z,48.51
2022-08-09T09:26:03.467Z,47.50
2022-08-09T09:26:34.662Z,46.81
2022-08-09T09:28:03.972Z,47.03
2022-08-09T09:28:39.062Z,47.44
2022-08-09T09:29:57.953Z,47.81
2022-08-09T09:30:41.975Z,48.80
2022-08-09T09:32:06.921Z,48.95
2022-08-09T09:32:35.565Z,48.61
2022-08-09T09:33:44.625Z,47.08
2022-08-09T09:34:34.553Z,45.26
2022-08-09T09:35:33.557Z,44.35
2022-08-09T09:36:34.564Z,44.74
2022-08-09T09:37:33.536Z,44.94
2022-08-09T09:38:37.133Z,46.25
2022-08-09T09:39:54.875Z,45.21
2022-08-09T09:40:34.530Z,43.89
2022-08-09T09:41:49.359Z,42.91
2022-08-09T09:42:34.687Z,43.32
2022-08-09T09:43:41.698Z,43.05
2022-08-09T09:44:34.431Z,43.64
2022-08-09T09:45:56.433Z,43.42
2022-08-09T09:46:51.765Z,43.66
2022-08-09T09:47:37.957Z,44.25
2022-08-09T09:48:34.369Z,44.84
2022-08-09T09:50:07.498Z,44.37
2022-08-09T09:50:34.361Z,45.50
2022-08-09T09:51:38.307Z,46.28
2022-08-09T09:52:37.173Z,48.58
2022-08-09T09:53:44.193Z,47.78
2022-08-09T09:54:34.282Z,47.66
2022-08-09T09:55:33.623Z,47.66
2022-08-09T09:56:33.706Z,47.62
2022-08-09T09:58:03.391Z,46.78
2022-08-09T09:58:34.249Z,45.34
2022-08-09T09:59:35.549Z,43.13
2022-08-09T10:00:33.623Z,43.20
2022-08-09T10:01:38.207Z,42.08
2022-08-09T10:02:34.369Z,40.76
2022-08-09T10:03:33.248Z,40.76
2022-08-09T10:04:33.184Z,40.29
2022-08-09T10:06:04.240Z,39.90
2022-08-09T10:06:34.117Z,40.27
2022-08-09T10:07:33.283Z,39.09
2022-08-09T10:08:54.561Z,39.95
2022-08-09T10:09:34.101Z,38.42
2022-08-09T10:10:34.285Z,39.44
2022-08-09T10:11:54.060Z,39.74
2022-08-09T10:12:34.052Z,40.37
2022-08-09T10:13:43.130Z,42.52
2022-08-09T10:14:34.107Z,43.82
2022-08-09T10:16:08.801Z,44.65
2022-08-09T10:16:56.563Z,44.81
2022-08-09T10:17:50.829Z,43.46
2022-08-09T10:18:33.954Z,41.93
2022-08-09T10:19:32.966Z,41.47
2022-08-09T10:20:44.513Z,40.69
2022-08-09T10:21:33.934Z,39.98
2022-08-09T10:22:33.718Z,39.56
2022-08-09T10:23:32.894Z,39.76
2022-08-09T10:24:36.102Z,39.58
2022-08-09T10:25:34.661Z,38.90
2022-08-09T10:26:33.846Z,40.21
2022-08-09T10:27:34.655Z,40.70
2022-08-09T10:28:33.816Z,39.88
2022-08-09T10:30:49.467Z,38.85
2022-08-09T10:32:20.968Z,37.88
2022-08-09T10:32:37.578Z,39.68
2022-08-09T10:32:42.532Z,39.88
2022-08-09T10:34:08.977Z,39.82
2022-08-09T10:34:36.033Z,40.82
2022-08-09T10:35:32.751Z,39.40
2022-08-09T10:36:32.752Z,39.19
2022-08-09T10:37:32.814Z,39.35
2022-08-09T10:38:55.999Z,38.13
2022-08-09T10:39:40.655Z,36.84
2022-08-09T10:40:39.012Z,36.53
2022-08-09T10:41:33.689Z,36.82
2022-08-09T10:42:32.788Z,37.59
2022-08-09T10:43:46.669Z,37.27
2022-08-09T10:44:33.616Z,37.41
2022-08-09T10:45:35.669Z,37.04
2022-08-09T10:46:33.599Z,37.21
2022-08-09T10:48:26.183Z,35.45
2022-08-09T10:48:33.565Z,35.34
2022-08-09T10:49:42.510Z,35.81
2022-08-09T10:50:33.551Z,35.32
2022-08-09T10:51:41.356Z,35.21
2022-08-09T10:52:33.748Z,35.89
2022-08-09T10:53:38.091Z,35.30
2022-08-09T10:54:33.480Z,35.01
2022-08-09T10:55:49.373Z,35.42
2022-08-09T10:56:33.451Z,37.16
2022-08-09T10:57:32.625Z,35.71
2022-08-09T10:58:33.932Z,37.10
2022-08-09T10:59:55.504Z,37.10
2022-08-09T11:00:33.425Z,37.37
2022-08-09T11:03:06.821Z,35.79
2022-08-09T11:03:14.430Z,35.19
2022-08-09T11:03:49.600Z,36.65
2022-08-09T11:04:33.449Z,35.45
2022-08-09T11:05:32.389Z,34.77
2022-08-09T11:06:32.323Z,35.07
2022-08-09T11:07:57.241Z,34.88
2022-08-09T11:08:33.486Z,35.55
2022-08-09T11:09:36.684Z,35.46
2022-08-09T11:10:32.288Z,35.25
2022-08-09T11:11:32.265Z,34.18
2022-08-09T11:12:32.518Z,34.01
2022-08-09T11:13:49.875Z,35.28
2022-08-09T11:14:33.216Z,34.52
2022-08-09T11:15:34.214Z,35.79
2022-08-09T11:16:35.097Z,35.61
2022-08-09T11:17:32.212Z,35.63
2022-08-09T11:18:32.182Z,36.78
2022-08-09T11:20:07.998Z,37.52
2022-08-09T11:20:33.139Z,39.32
2022-08-09T11:21:32.143Z,39.11
2022-08-09T11:22:32.126Z,38.98
2022-08-09T11:23:32.111Z,37.88
2022-08-09T11:24:32.104Z,37.84
2022-08-09T11:25:44.889Z,36.16
2022-08-09T11:26:33.062Z,36.18
2022-08-09T11:28:05.433Z,36.86
2022-08-09T11:28:34.663Z,37.31
2022-08-09T11:30:03.963Z,36.02
2022-08-09T11:30:34.300Z,35.93
2022-08-09T11:31:36.398Z,36.12
2022-08-09T11:32:32.080Z,35.91
2022-08-09T11:33:31.973Z,36.69
2022-08-09T11:34:31.956Z,35.91
2022-08-09T11:35:35.351Z,35.40
2022-08-09T11:36:35.647Z,35.50
2022-08-09T11:37:40.918Z,35.03
2022-08-09T11:38:33.945Z,33.94
2022-08-09T11:39:33.444Z,34.09
2022-08-09T11:40:32.896Z,34.19
2022-08-09T11:41:37.495Z,33.70
2022-08-09T11:42:33.104Z,34.00
2022-08-09T11:43:32.044Z,33.51
2022-08-09T11:44:31.830Z,33.50
2022-08-09T11:45:37.902Z,34.36
2022-08-09T11:46:33.746Z,33.48
2022-08-09T11:47:31.785Z,33.87
2022-08-09T11:48:31.935Z,33.18
2022-08-09T11:49:42.822Z,33.40
2022-08-09T11:50:53.735Z,34.26
2022-08-09T11:52:48.718Z,36.16
2022-08-09T11:52:56.559Z,36.90
2022-08-09T11:53:57.989Z,37.11
2022-08-09T11:54:33.733Z,36.39
2022-08-09T11:55:35.025Z,35.68
2022-08-09T11:56:41.572Z,36.33
2022-08-09T11:58:00.428Z,36.20
2022-08-09T11:58:33.785Z,35.52
2022-08-09T11:59:33.735Z,35.94
2022-08-09T12:00:31.753Z,35.75
2022-08-09T12:01:37.856Z,35.53
2022-08-09T12:02:37.380Z,35.89
2022-08-09T12:03:55.888Z,34.39
2022-08-09T12:04:37.986Z,35.16
2022-08-09T12:05:37.596Z,34.94
2022-08-09T12:06:35.076Z,34.48
2022-08-09T12:07:34.363Z,34.68
2022-08-09T12:08:32.523Z,34.64
2022-08-09T12:09:33.594Z,37.56
2022-08-09T12:10:38.361Z,39.37
2022-08-09T12:11:37.963Z,40.13
2022-08-09T12:12:32.479Z,40.08
2022-08-09T12:14:09.251Z,41.47
2022-08-09T12:14:36.764Z,40.92
2022-08-09T12:15:49.712Z,38.88
2022-08-09T12:16:38.118Z,36.76
2022-08-09T12:17:43.377Z,37.35
2022-08-09T12:18:33.666Z,35.94
2022-08-09T12:19:31.372Z,34.14
2022-08-09T12:20:31.380Z,33.74
2022-08-09T12:21:37.222Z,33.53
2022-08-09T12:22:32.541Z,33.02
2022-08-09T12:24:57.944Z,31.62
2022-08-09T12:25:02.894Z,31.38
2022-08-09T12:26:02.861Z,32.87
2022-08-09T12:29:14.624Z,32.23
2022-08-09T12:30:36.665Z,32.62
2022-08-09T12:30:36.687Z,34.11
2022-08-09T12:31:58.313Z,34.45
2022-08-09T12:32:16.488Z,35.37
2022-08-09T12:33:15.510Z,35.65
2022-08-09T12:34:15.468Z,37.06
2022-08-09T12:35:19.328Z,34.19
2022-08-09T12:36:32.372Z,33.50
2022-08-09T12:37:23.581Z,34.65
2022-08-09T12:38:16.397Z,36.53
2022-08-09T12:39:16.496Z,35.55
2022-08-09T12:40:15.391Z,34.74
2022-08-09T12:41:15.358Z,34.64
2022-08-09T12:42:16.262Z,35.03
2022-08-09T12:43:15.330Z,34.88
2022-08-09T12:44:15.329Z,33.18
2022-08-09T12:45:34.323Z,32.67
2022-08-09T12:46:16.300Z,32.16
2022-08-09T12:47:15.303Z,33.06
2022-08-09T12:48:31.001Z,32.58
2022-08-09T12:49:16.260Z,33.06
2022-08-09T12:50:47.882Z,32.45
2022-08-09T12:51:30.363Z,32.99
2022-08-09T12:52:16.223Z,33.62
2022-08-09T12:53:19.393Z,34.42
2022-08-09T12:56:02.349Z,35.01
2022-08-09T12:56:12.574Z,34.21